createdAt,value
2019-05-21T00:02:58.226Z,12.80
2019-05-21T00:08:21.982Z,12.75
2019-05-21T00:13:45.966Z,12.74
2019-05-21T00:19:09.579Z,12.72
2019-05-21T00:24:33.579Z,12.77
2019-05-21T00:30:33.736Z,12.73
2019-05-21T00:36:35.760Z,12.66
2019-05-21T00:42:05.113Z,12.45
2019-05-21T00:47:29.074Z,12.46
2019-05-21T00:52:52.930Z,12.42
2019-05-21T00:58:17.389Z,12.41
2019-05-21T01:03:43.284Z,12.40
2019-05-21T01:09:06.723Z,12.31
2019-05-21T01:14:30.582Z,12.21
2019-05-21T01:19:54.716Z,12.15
2019-05-21T01:25:18.509Z,12.25
2019-05-21T01:30:42.230Z,12.29
2019-05-21T01:36:06.830Z,12.13
2019-05-21T01:41:30.862Z,11.95
2019-05-21T01:46:55.807Z,11.97
2019-05-21T01:52:19.757Z,11.83
2019-05-21T01:57:44.670Z,11.84
2019-05-21T02:03:08.649Z,11.78
2019-05-21T02:08:33.466Z,11.84
2019-05-21T02:13:57.806Z,11.71
2019-05-21T02:19:22.297Z,11.55
2019-05-21T02:24:46.074Z,11.45
2019-05-21T02:30:11.073Z,11.54
2019-05-21T02:35:52.844Z,11.48
2019-05-21T02:41:01.253Z,11.45
2019-05-21T02:46:25.304Z,11.41
2019-05-21T02:51:49.250Z,11.41
2019-05-21T02:57:14.121Z,11.39
2019-05-21T03:02:40.395Z,11.37
2019-05-21T03:08:04.036Z,11.44
2019-05-21T03:13:28.466Z,11.28
2019-05-21T03:18:53.387Z,11.27
2019-05-21T03:24:18.083Z,11.29
2019-05-21T03:29:42.520Z,11.23
2019-05-21T03:35:08.352Z,11.27
2019-05-21T03:40:32.784Z,11.35
2019-05-21T03:45:56.995Z,11.37
2019-05-21T03:51:21.982Z,11.45
2019-05-21T03:56:46.145Z,11.55
2019-05-21T04:02:10.680Z,11.74
2019-05-21T04:07:35.489Z,11.99
2019-05-21T04:13:06.756Z,12.25
2019-05-21T04:18:37.280Z,13.21
2019-05-21T04:24:00.898Z,13.86
2019-05-21T04:29:25.691Z,13.99
2019-05-21T04:34:50.723Z,14.34
2019-05-21T04:40:14.482Z,14.58
2019-05-21T04:45:37.961Z,14.71
2019-05-21T04:51:02.855Z,15.03
2019-05-21T04:56:26.729Z,15.53
2019-05-21T05:01:51.866Z,16.08
2019-05-21T05:07:27.856Z,16.65
2019-05-21T05:12:41.012Z,17.17
2019-05-21T05:18:04.573Z,17.44
2019-05-21T05:23:29.367Z,17.59
2019-05-21T05:28:54.078Z,17.40
2019-05-21T05:34:17.963Z,17.67
2019-05-21T05:39:42.382Z,18.50
2019-05-21T05:45:08.400Z,19.34
2019-05-21T05:50:36.124Z,18.50
2019-05-21T05:56:00.319Z,18.72
2019-05-21T06:01:25.429Z,19.45
2019-05-21T06:06:50.172Z,19.89
2019-05-21T06:12:14.525Z,19.55
2019-05-21T06:17:39.195Z,21.01
2019-05-21T06:23:03.303Z,21.65
2019-05-21T06:28:27.069Z,21.83
2019-05-21T06:33:51.917Z,22.32
2019-05-21T06:39:15.973Z,23.84
2019-05-21T06:44:39.804Z,23.84
2019-05-21T06:50:03.645Z,24.28
2019-05-21T06:55:28.414Z,23.54
2019-05-21T07:00:52.113Z,24.27
2019-05-21T07:06:15.999Z,24.68
2019-05-21T07:11:40.686Z,24.26
2019-05-21T07:17:04.393Z,23.99
2019-05-21T07:22:28.889Z,23.49
2019-05-21T07:27:54.673Z,23.63
2019-05-21T07:33:19.451Z,24.48
2019-05-21T07:38:53.043Z,23.31
2019-05-21T07:44:09.609Z,23.23
2019-05-21T07:49:33.326Z,23.95
2019-05-21T07:54:58.425Z,24.52
2019-05-21T08:00:22.873Z,24.35
2019-05-21T08:05:47.515Z,25.31
2019-05-21T08:11:11.773Z,26.54
2019-05-21T08:16:36.305Z,26.47
2019-05-21T08:22:00.908Z,25.86
2019-05-21T08:27:25.527Z,25.33
2019-05-21T08:32:50.220Z,25.78
2019-05-21T08:38:14.564Z,25.40
2019-05-21T08:43:38.260Z,26.22
2019-05-21T08:49:01.828Z,26.43
2019-05-21T08:54:44.155Z,25.22
2019-05-21T09:00:08.945Z,23.82
2019-05-21T09:05:32.885Z,25.98
2019-05-21T09:10:57.447Z,26.35
2019-05-21T09:16:21.972Z,25.93
2019-05-21T09:21:46.724Z,26.58
2019-05-21T09:27:12.031Z,26.24
2019-05-21T09:32:36.670Z,26.22
2019-05-21T09:38:00.608Z,27.52
2019-05-21T09:43:24.309Z,29.18
2019-05-21T09:48:48.751Z,28.23
2019-05-21T09:54:13.456Z,29.29
2019-05-21T10:00:06.773Z,29.72
2019-05-21T10:05:30.639Z,31.95
2019-05-21T10:10:54.977Z,31.40
2019-05-21T10:16:18.790Z,31.02
2019-05-21T10:21:43.504Z,29.92
2019-05-21T10:27:07.216Z,29.68
2019-05-21T10:32:31.835Z,31.41
2019-05-21T10:37:56.731Z,31.44
2019-05-21T10:43:21.458Z,32.61
2019-05-21T10:48:46.293Z,33.68
2019-05-21T10:54:10.681Z,30.60
2019-05-21T10:59:34.532Z,30.49
2019-05-21T11:05:06.910Z,32.14
2019-05-21T11:10:30.443Z,32.19
2019-05-21T11:15:55.408Z,31.49
2019-05-21T11:21:19.193Z,30.30
2019-05-21T11:26:43.193Z,29.33
2019-05-21T11:32:08.005Z,28.92
2019-05-21T11:37:32.845Z,28.31
2019-05-21T11:42:57.471Z,28.68
2019-05-21T11:48:22.137Z,28.83
2019-05-21T11:53:46.542Z,27.35
2019-05-21T11:59:11.864Z,26.41
2019-05-21T12:04:37.458Z,25.71
2019-05-21T12:10:02.792Z,27.40
2019-05-21T12:15:26.551Z,27.40
2019-05-21T12:20:50.986Z,27.78
2019-05-21T12:26:15.678Z,27.08
2019-05-21T12:31:39.240Z,28.64
2019-05-21T12:37:05.080Z,28.99
2019-05-21T12:42:28.968Z,29.74
2019-05-21T12:47:52.699Z,29.85
2019-05-21T12:53:17.203Z,29.48
2019-05-21T12:58:41.615Z,28.68
2019-05-21T13:04:06.053Z,29.04
2019-05-21T13:09:32.774Z,27.64
2019-05-21T13:14:55.812Z,29.29
2019-05-21T13:20:20.905Z,29.35
2019-05-21T13:25:45.391Z,30.25
2019-05-21T13:31:09.889Z,29.89
2019-05-21T13:36:34.951Z,31.77
2019-05-21T13:41:58.503Z,31.28
2019-05-21T13:47:22.566Z,32.71
2019-05-21T13:52:46.461Z,34.04
2019-05-21T13:58:10.919Z,34.03
2019-05-21T14:03:35.727Z,34.72
2019-05-21T14:09:00.485Z,32.57
2019-05-21T14:14:26.653Z,30.98
2019-05-21T14:19:51.125Z,32.60
2019-05-21T14:25:16.187Z,31.49
2019-05-21T14:30:40.393Z,30.91
2019-05-21T14:36:03.952Z,29.91
2019-05-21T14:41:28.303Z,28.57
2019-05-21T14:46:52.383Z,28.42
2019-05-21T14:52:16.874Z,28.12
2019-05-21T14:57:41.540Z,28.19
2019-05-21T15:03:05.503Z,29.40
2019-05-21T15:08:30.375Z,28.82
2019-05-21T15:13:55.155Z,29.60
2019-05-21T15:19:19.744Z,29.23
2019-05-21T15:24:44.276Z,28.44
2019-05-21T15:30:08.969Z,28.93
2019-05-21T15:35:33.756Z,29.79
2019-05-21T15:41:09.839Z,27.97
2019-05-21T15:46:23.017Z,28.47
2019-05-21T15:51:46.841Z,29.55
2019-05-21T15:57:11.212Z,28.00
2019-05-21T16:02:35.646Z,25.88
2019-05-21T16:07:59.755Z,25.69
2019-05-21T16:13:24.380Z,26.63
2019-05-21T16:18:49.446Z,27.52
2019-05-21T16:24:14.062Z,26.99
2019-05-21T16:29:38.701Z,27.05
2019-05-21T16:35:02.968Z,25.46
2019-05-21T16:40:27.676Z,26.45
2019-05-21T16:45:52.429Z,26.35
2019-05-21T16:51:16.703Z,25.60
2019-05-21T16:56:42.311Z,24.93
2019-05-21T17:02:06.107Z,25.38
2019-05-21T17:07:30.716Z,24.88
2019-05-21T17:12:55.323Z,23.84
2019-05-21T17:18:20.017Z,24.41
2019-05-21T17:23:44.671Z,25.46
2019-05-21T17:29:08.401Z,25.96
2019-05-21T17:34:33.008Z,25.72
2019-05-21T17:39:57.471Z,25.40
2019-05-21T17:45:22.152Z,24.74
2019-05-21T17:50:47.167Z,24.27
2019-05-21T17:56:11.544Z,23.72
2019-05-21T18:01:35.418Z,23.19
2019-05-21T18:07:00.414Z,22.86
2019-05-21T18:12:32.121Z,22.83
2019-05-21T18:17:49.427Z,22.79
2019-05-21T18:23:14.963Z,22.52
2019-05-21T18:28:39.616Z,22.33
2019-05-21T18:34:04.818Z,22.10
2019-05-21T18:39:29.678Z,21.86
2019-05-21T18:44:53.774Z,21.64
2019-05-21T18:50:18.880Z,21.52
2019-05-21T18:55:42.613Z,21.37
2019-05-21T19:01:06.325Z,21.21
2019-05-21T19:06:31.527Z,21.09
2019-05-21T19:11:56.124Z,21.02
2019-05-21T19:17:34.330Z,20.91
2019-05-21T19:22:46.196Z,20.81
2019-05-21T19:28:10.744Z,20.66
2019-05-21T19:33:34.808Z,20.53
2019-05-21T19:38:59.528Z,20.49
2019-05-21T19:44:23.330Z,20.48
2019-05-21T19:49:47.291Z,20.44
2019-05-21T19:55:11.633Z,20.39
2019-05-21T20:00:40.475Z,20.34
2019-05-21T20:06:04.512Z,20.21
2019-05-21T20:11:29.091Z,20.00
2019-05-21T20:16:53.358Z,19.86
2019-05-21T20:22:17.727Z,19.75
2019-05-21T20:27:42.637Z,19.69
2019-05-21T20:33:07.576Z,19.61
2019-05-21T20:38:33.120Z,19.50
2019-05-21T20:43:59.409Z,19.15
2019-05-21T20:49:24.356Z,18.21
2019-05-21T20:54:50.425Z,17.59
2019-05-21T21:00:20.307Z,17.18
2019-05-21T21:05:45.019Z,17.08
2019-05-21T21:11:11.190Z,17.01
2019-05-21T21:16:36.901Z,16.87
2019-05-21T21:22:00.746Z,16.74
2019-05-21T21:27:24.976Z,16.66
2019-05-21T21:32:49.736Z,16.54
2019-05-21T21:38:17.397Z,16.43
2019-05-21T21:43:42.891Z,16.34
2019-05-21T21:49:09.253Z,16.25
2019-05-21T21:54:34.356Z,16.18
2019-05-21T21:59:58.229Z,16.09
2019-05-21T22:05:22.221Z,15.99
2019-05-21T22:10:46.117Z,15.92
2019-05-21T22:16:09.958Z,15.89
2019-05-21T22:21:34.415Z,15.88
2019-05-21T22:26:59.296Z,15.89
2019-05-21T22:32:23.403Z,15.91
2019-05-21T22:37:47.267Z,15.94
2019-05-21T22:43:11.465Z,15.94
2019-05-21T22:48:35.949Z,15.91
2019-05-21T22:54:00.248Z,15.91
2019-05-21T22:59:24.061Z,15.93
2019-05-21T23:04:49.666Z,15.87
2019-05-21T23:10:14.897Z,15.88
2019-05-21T23:15:40.386Z,15.91
2019-05-21T23:21:17.726Z,15.90
2019-05-21T23:26:42.744Z,15.90
2019-05-21T23:32:08.254Z,15.91
2019-05-21T23:37:33.273Z,15.84
2019-05-21T23:42:57.274Z,15.79
2019-05-21T23:48:21.160Z,15.81
2019-05-21T23:53:45.658Z,15.81
2019-05-21T23:59:09.636Z,15.79
